sensor_id;sensor_type;location;lat;lon;timestamp;pressure;altitude;pressure_sealevel;temperature;humidity
8890;BME280;4481;43.406;24.454;2023-04-25T00:00:01;76254.88;;;-144.09;100.00
8890;BME280;4481;43.406;24.454;2023-04-25T00:02:32;76229.81;;;-144.09;100.00
8890;BME280;4481;43.406;24.454;2023-04-25T00:05:00;76231.88;;;-144.09;100.00
8890;BME280;4481;43.406;24.454;2023-04-25T00:07:27;76238.16;;;-144.09;100.00
8890;BME280;4481;43.406;24.454;2023-04-25T00:09:54;76256.97;;;-144.09;100.00
8890;BME280;4481;43.406;24.454;2023-04-25T00:12:20;76233.97;;;-144.09;100.00
8890;BME280;4481;43.406;24.454;2023-04-25T00:14:47;76259.06;;;-144.09;100.00
8890;BME280;4481;43.406;24.454;2023-04-25T00:17:15;76246.50;;;-144.09;100.00
8890;BME280;4481;43.406;24.454;2023-04-25T00:19:41;76225.63;;;-144.09;100.00
8890;BME280;4481;43.406;24.454;2023-04-25T00:22:07;76215.19;;;-144.09;100.00
8890;BME280;4481;43.406;24.454;2023-04-25T00:24:34;76206.81;;;-144.09;100.00
8890;BME280;4481;43.406;24.454;2023-04-25T00:27:00;76200.56;;;-144.09;100.00
8890;BME280;4481;43.406;24.454;2023-04-25T00:29:26;76188.00;;;-144.09;100.00
8890;BME280;4481;43.406;24.454;2023-04-25T00:31:53;76196.38;;;-144.09;100.00
8890;BME280;4481;43.406;24.454;2023-04-25T00:34:19;76196.38;;;-144.09;100.00
8890;BME280;4481;43.406;24.454;2023-04-25T00:36:45;76200.56;;;-144.09;100.00
8890;BME280;4481;43.406;24.454;2023-04-25T00:39:12;76208.91;;;-144.09;100.00
8890;BME280;4481;43.406;24.454;2023-04-25T00:41:39;76219.34;;;-144.09;100.00
8890;BME280;4481;43.406;24.454;2023-04-25T00:44:08;76219.34;;;-144.09;100.00
8890;BME280;4481;43.406;24.454;2023-04-25T00:46:36;76242.34;;;-144.09;100.00
8890;BME280;4481;43.406;24.454;2023-04-25T00:49:02;76233.97;;;-144.09;100.00
8890;BME280;4481;43.406;24.454;2023-04-25T00:51:29;76221.44;;;-144.09;100.00
8890;BME280;4481;43.406;24.454;2023-04-25T00:53:57;76206.81;;;-144.09;100.00
8890;BME280;4481;43.406;24.454;2023-04-25T00:56:23;76204.72;;;-144.09;100.00
8890;BME280;4481;43.406;24.454;2023-04-25T00:58:53;76202.63;;;-144.09;100.00
8890;BME280;4481;43.406;24.454;2023-04-25T01:01:20;76200.56;;;-144.09;100.00
8890;BME280;4481;43.406;24.454;2023-04-25T01:03:46;76217.25;;;-144.09;100.00
8890;BME280;4481;43.406;24.454;2023-04-25T01:06:12;76238.16;;;-144.09;100.00
8890;BME280;4481;43.406;24.454;2023-04-25T01:08:39;76236.06;;;-144.09;100.00
8890;BME280;4481;43.406;24.454;2023-04-25T01:11:05;76244.44;;;-144.09;100.00
8890;BME280;4481;43.406;24.454;2023-04-25T01:13:32;76238.16;;;-144.09;100.00
8890;BME280;4481;43.406;24.454;2023-04-25T01:15:59;76250.69;;;-144.09;100.00
8890;BME280;4481;43.406;24.454;2023-04-25T01:18:25;76240.25;;;-144.09;100.00
8890;BME280;4481;43.406;24.454;2023-04-25T01:20:52;76215.19;;;-144.09;100.00
8890;BME280;4481;43.406;24.454;2023-04-25T01:23:20;76215.19;;;-144.09;100.00
8890;BME280;4481;43.406;24.454;2023-04-25T01:25:46;76204.72;;;-144.09;100.00
8890;BME280;4481;43.406;24.454;2023-04-25T01:28:13;76215.19;;;-144.09;100.00
8890;BME280;4481;43.406;24.454;2023-04-25T01:30:40;76198.47;;;-144.09;100.00
8890;BME280;4481;43.406;24.454;2023-04-25T01:33:07;76202.63;;;-144.09;100.00
8890;BME280;4481;43.406;24.454;2023-04-25T01:35:34;76200.56;;;-144.09;100.00
8890;BME280;4481;43.406;24.454;2023-04-25T01:38:00;76198.47;;;-144.09;100.00
8890;BME280;4481;43.406;24.454;2023-04-25T01:40:27;76192.19;;;-144.09;100.00
8890;BME280;4481;43.406;24.454;2023-04-25T01:42:54;76192.19;;;-144.09;100.00
8890;BME280;4481;43.406;24.454;2023-04-25T01:45:21;76188.00;;;-144.09;100.00
8890;BME280;4481;43.406;24.454;2023-04-25T01:47:47;76185.94;;;-144.09;100.00
8890;BME280;4481;43.406;24.454;2023-04-25T01:50:16;76194.28;;;-144.09;100.00
8890;BME280;4481;43.406;24.454;2023-04-25T01:52:42;76200.56;;;-144.09;100.00
8890;BME280;4481;43.406;24.454;2023-04-25T01:55:09;76192.19;;;-144.09;100.00
8890;BME280;4481;43.406;24.454;2023-04-25T01:57:36;76215.19;;;-144.09;100.00
8890;BME280;4481;43.406;24.454;2023-04-25T02:00:05;76223.53;;;-144.09;100.00
8890;BME280;4481;43.406;24.454;2023-04-25T02:02:32;76208.91;;;-144.09;100.00
8890;BME280;4481;43.406;24.454;2023-04-25T02:04:58;76202.63;;;-144.09;100.00
8890;BME280;4481;43.406;24.454;2023-04-25T02:07:25;76185.94;;;-144.09;100.00
8890;BME280;4481;43.406;24.454;2023-04-25T02:09:51;76185.94;;;-144.09;100.00
8890;BME280;4481;43.406;24.454;2023-04-25T02:12:18;76188.00;;;-144.09;100.00
8890;BME280;4481;43.406;24.454;2023-04-25T02:14:45;76190.09;;;-144.09;100.00
8890;BME280;4481;43.406;24.454;2023-04-25T02:17:11;76183.84;;;-144.09;100.00
8890;BME280;4481;43.406;24.454;2023-04-25T02:19:38;76190.09;;;-144.09;100.00
8890;BME280;4481;43.406;24.454;2023-04-25T02:22:05;76177.56;;;-144.09;100.00
8890;BME280;4481;43.406;24.454;2023-04-25T02:24:31;76171.31;;;-144.09;100.00
8890;BME280;4481;43.406;24.454;2023-04-25T02:26:59;76158.75;;;-144.09;100.00
8890;BME280;4481;43.406;24.454;2023-04-25T02:29:25;76152.50;;;-144.09;100.00
8890;BME280;4481;43.406;24.454;2023-04-25T02:31:51;76148.31;;;-144.09;100.00
8890;BME280;4481;43.406;24.454;2023-04-25T02:34:18;76152.50;;;-144.09;100.00
8890;BME280;4481;43.406;24.454;2023-04-25T02:36:44;76160.84;;;-144.09;100.00
8890;BME280;4481;43.406;24.454;2023-04-25T02:39:10;76154.59;;;-144.09;100.00
8890;BME280;4481;43.406;24.454;2023-04-25T02:41:36;76165.03;;;-144.09;100.00
8890;BME280;4481;43.406;24.454;2023-04-25T02:44:03;76152.50;;;-144.09;100.00
8890;BME280;4481;43.406;24.454;2023-04-25T02:46:29;76144.13;;;-144.09;100.00
8890;BME280;4481;43.406;24.454;2023-04-25T02:48:56;76156.69;;;-144.09;100.00
8890;BME280;4481;43.406;24.454;2023-04-25T02:51:22;76160.84;;;-144.09;100.00
8890;BME280;4481;43.406;24.454;2023-04-25T02:53:48;76162.94;;;-144.09;100.00
8890;BME280;4481;43.406;24.454;2023-04-25T02:56:14;76167.13;;;-144.09;100.00
8890;BME280;4481;43.406;24.454;2023-04-25T02:58:40;76154.59;;;-144.09;100.00
8890;BME280;4481;43.406;24.454;2023-04-25T03:01:06;76177.56;;;-144.09;100.00
8890;BME280;4481;43.406;24.454;2023-04-25T03:03:32;76167.13;;;-144.09;100.00
8890;BME280;4481;43.406;24.454;2023-04-25T03:05:59;76150.41;;;-144.09;100.00
8890;BME280;4481;43.406;24.454;2023-04-25T03:08:25;76146.22;;;-144.09;100.00
8890;BME280;4481;43.406;24.454;2023-04-25T03:10:54;76139.97;;;-144.09;100.00
8890;BME280;4481;43.406;24.454;2023-04-25T03:13:21;76152.50;;;-144.09;100.00
8890;BME280;4481;43.406;24.454;2023-04-25T03:15:47;76173.38;;;-144.09;100.00
8890;BME280;4481;43.406;24.454;2023-04-25T03:18:13;76167.13;;;-144.09;100.00
8890;BME280;4481;43.406;24.454;2023-04-25T03:20:39;76156.69;;;-144.09;100.00
8890;BME280;4481;43.406;24.454;2023-04-25T03:23:07;76152.50;;;-144.09;100.00
8890;BME280;4481;43.406;24.454;2023-04-25T03:25:34;76148.31;;;-144.09;100.00
8890;BME280;4481;43.406;24.454;2023-04-25T03:28:00;76150.41;;;-144.09;100.00
8890;BME280;4481;43.406;24.454;2023-04-25T03:30:26;76150.41;;;-144.09;100.00
8890;BME280;4481;43.406;24.454;2023-04-25T03:32:52;76171.31;;;-144.09;100.00
8890;BME280;4481;43.406;24.454;2023-04-25T03:35:19;76179.66;;;-144.09;100.00
8890;BME280;4481;43.406;24.454;2023-04-25T03:37:45;76183.84;;;-144.09;100.00
8890;BME280;4481;43.406;24.454;2023-04-25T03:40:12;76196.38;;;-144.09;100.00
8890;BME280;4481;43.406;24.454;2023-04-25T03:42:38;76192.19;;;-144.09;100.00
8890;BME280;4481;43.406;24.454;2023-04-25T03:45:06;76196.38;;;-144.09;100.00
8890;BME280;4481;43.406;24.454;2023-04-25T03:47:32;76190.09;;;-144.09;100.00
8890;BME280;4481;43.406;24.454;2023-04-25T03:49:58;76177.56;;;-144.09;100.00
8890;BME280;4481;43.406;24.454;2023-04-25T03:52:27;76183.84;;;-144.09;100.00
8890;BME280;4481;43.406;24.454;2023-04-25T03:54:53;76181.75;;;-144.09;100.00
8890;BME280;4481;43.406;24.454;2023-04-25T03:57:19;76177.56;;;-144.09;100.00
8890;BME280;4481;43.406;24.454;2023-04-25T03:59:46;76175.47;;;-144.09;100.00
8890;BME280;4481;43.406;24.454;2023-04-25T04:02:12;76160.84;;;-144.09;100.00
8890;BME280;4481;43.406;24.454;2023-04-25T04:04:38;76158.75;;;-144.09;100.00
8890;BME280;4481;43.406;24.454;2023-04-25T04:07:04;76156.69;;;-144.09;100.00
8890;BME280;4481;43.406;24.454;2023-04-25T04:09:30;76146.22;;;-144.09;100.00
8890;BME280;4481;43.406;24.454;2023-04-25T04:11:56;76156.69;;;-144.09;100.00
8890;BME280;4481;43.406;24.454;2023-04-25T04:14:23;76156.69;;;-144.09;100.00
8890;BME280;4481;43.406;24.454;2023-04-25T04:16:51;76150.41;;;-144.09;100.00
8890;BME280;4481;43.406;24.454;2023-04-25T04:19:17;76150.41;;;-144.09;100.00
8890;BME280;4481;43.406;24.454;2023-04-25T04:21:43;76154.59;;;-144.09;100.00
8890;BME280;4481;43.406;24.454;2023-04-25T04:24:09;76144.13;;;-144.09;100.00
8890;BME280;4481;43.406;24.454;2023-04-25T04:26:35;76142.03;;;-144.09;100.00
8890;BME280;4481;43.406;24.454;2023-04-25T04:29:02;76146.22;;;-144.09;100.00
8890;BME280;4481;43.406;24.454;2023-04-25T04:31:29;76144.13;;;-144.09;100.00
8890;BME280;4481;43.406;24.454;2023-04-25T04:33:55;76133.69;;;-144.09;100.00
8890;BME280;4481;43.406;24.454;2023-04-25T04:36:21;76148.31;;;-144.09;100.00
8890;BME280;4481;43.406;24.454;2023-04-25T04:38:48;76146.22;;;-144.09;100.00
8890;BME280;4481;43.406;24.454;2023-04-25T04:41:14;76137.88;;;-144.09;100.00
8890;BME280;4481;43.406;24.454;2023-04-25T04:43:41;76127.41;;;-144.09;100.00
8890;BME280;4481;43.406;24.454;2023-04-25T04:46:07;76121.16;;;-144.09;100.00
8890;BME280;4481;43.406;24.454;2023-04-25T04:48:36;76112.78;;;-144.09;100.00
8890;BME280;4481;43.406;24.454;2023-04-25T04:51:02;76104.44;;;-144.09;100.00
8890;BME280;4481;43.406;24.454;2023-04-25T04:53:28;76098.16;;;-144.09;100.00
8890;BME280;4481;43.406;24.454;2023-04-25T04:55:55;76087.72;;;-144.09;100.00
8890;BME280;4481;43.406;24.454;2023-04-25T04:58:21;76066.84;;;-144.09;100.00
8890;BME280;4481;43.406;24.454;2023-04-25T05:00:49;76060.56;;;-144.09;100.00
8890;BME280;4481;43.406;24.454;2023-04-25T05:03:15;76048.03;;;-144.09;100.00
8890;BME280;4481;43.406;24.454;2023-04-25T05:05:42;76027.13;;;-144.09;100.00
8890;BME280;4481;43.406;24.454;2023-04-25T05:08:08;76031.31;;;-144.09;100.00
8890;BME280;4481;43.406;24.454;2023-04-25T05:10:35;76016.69;;;-144.09;100.00
8890;BME280;4481;43.406;24.454;2023-04-25T05:13:01;76016.69;;;-144.09;100.00
8890;BME280;4481;43.406;24.454;2023-04-25T05:15:27;76020.88;;;-144.09;100.00
8890;BME280;4481;43.406;24.454;2023-04-25T05:17:53;75997.88;;;-144.09;100.00
8890;BME280;4481;43.406;24.454;2023-04-25T05:20:19;76008.34;;;-144.09;100.00
8890;BME280;4481;43.406;24.454;2023-04-25T05:22:46;75981.19;;;-144.09;100.00
8890;BME280;4481;43.406;24.454;2023-04-25T05:25:13;75964.47;;;-144.09;100.00
8890;BME280;4481;43.406;24.454;2023-04-25T05:27:39;75933.13;;;-144.09;100.00
8890;BME280;4481;43.406;24.454;2023-04-25T05:30:06;75905.97;;;-144.09;100.00
8890;BME280;4481;43.406;24.454;2023-04-25T05:32:33;75899.69;;;-144.09;100.00
8890;BME280;4481;43.406;24.454;2023-04-25T05:34:59;75847.47;;;-144.09;100.00
8890;BME280;4481;43.406;24.454;2023-04-25T05:37:26;75791.06;;;-144.09;100.00
8890;BME280;4481;43.406;24.454;2023-04-25T05:39:53;75738.84;;;-144.09;100.00
8890;BME280;4481;43.406;24.454;2023-04-25T05:42:19;75682.44;;;-144.09;99.41
8890;BME280;4481;43.406;24.454;2023-04-25T05:44:45;75636.47;;;-144.09;98.16
8890;BME280;4481;43.406;24.454;2023-04-25T05:47:11;75588.44;;;-144.09;95.77
8890;BME280;4481;43.406;24.454;2023-04-25T05:49:38;75529.94;;;-144.09;95.10
8890;BME280;4481;43.406;24.454;2023-04-25T05:52:04;75481.88;;;-144.09;94.55
8890;BME280;4481;43.406;24.454;2023-04-25T05:54:30;75427.59;;;-144.09;92.98
8890;BME280;4481;43.406;24.454;2023-04-25T05:56:57;75402.50;;;-144.09;92.14
8890;BME280;4481;43.406;24.454;2023-04-25T05:59:25;75417.13;;;-144.09;89.80
8890;BME280;4481;43.406;24.454;2023-04-25T06:01:53;75394.16;;;-144.09;89.52
8890;BME280;4481;43.406;24.454;2023-04-25T06:04:20;75360.75;;;-144.09;90.21
8890;BME280;4481;43.406;24.454;2023-04-25T06:06:46;75400.44;;;-144.09;88.98
8890;BME280;4481;43.406;24.454;2023-04-25T06:09:12;75398.34;;;-144.09;88.78
8890;BME280;4481;43.406;24.454;2023-04-25T06:11:40;75360.75;;;-144.09;87.54
8890;BME280;4481;43.406;24.454;2023-04-25T06:14:07;75341.94;;;-144.09;87.23
8890;BME280;4481;43.406;24.454;2023-04-25T06:16:34;75335.66;;;-144.09;85.65
8890;BME280;4481;43.406;24.454;2023-04-25T06:19:00;75335.66;;;-144.09;85.94
8890;BME280;4481;43.406;24.454;2023-04-25T06:21:26;75318.97;;;-144.09;79.92
8890;BME280;4481;43.406;24.454;2023-04-25T06:23:56;75325.22;;;-144.09;77.98
8890;BME280;4481;43.406;24.454;2023-04-25T06:26:22;75348.22;;;-144.09;77.83
8890;BME280;4481;43.406;24.454;2023-04-25T06:28:49;75325.22;;;-144.09;77.31
8890;BME280;4481;43.406;24.454;2023-04-25T06:31:15;75339.84;;;-144.09;78.00
8890;BME280;4481;43.406;24.454;2023-04-25T06:33:42;75348.22;;;-144.09;78.19
8890;BME280;4481;43.406;24.454;2023-04-25T06:36:11;75354.47;;;-144.09;76.95
8890;BME280;4481;43.406;24.454;2023-04-25T06:38:37;75316.88;;;-144.09;77.50
8890;BME280;4481;43.406;24.454;2023-04-25T06:41:03;75325.22;;;-144.09;77.13
8890;BME280;4481;43.406;24.454;2023-04-25T06:43:30;75369.09;;;-144.09;76.60
8890;BME280;4481;43.406;24.454;2023-04-25T06:45:58;75298.06;;;-144.09;76.15
8890;BME280;4481;43.406;24.454;2023-04-25T06:48:26;75291.81;;;-144.09;75.83
8890;BME280;4481;43.406;24.454;2023-04-25T06:50:52;75304.34;;;-144.09;72.04
8890;BME280;4481;43.406;24.454;2023-04-25T06:53:18;75333.59;;;-144.09;72.18
8890;BME280;4481;43.406;24.454;2023-04-25T06:55:45;75381.63;;;-144.09;73.17
8890;BME280;4481;43.406;24.454;2023-04-25T06:58:11;75383.72;;;-144.09;72.99
8890;BME280;4481;43.406;24.454;2023-04-25T07:00:37;75417.13;;;-144.09;72.00
8890;BME280;4481;43.406;24.454;2023-04-25T07:03:03;75410.88;;;-144.09;75.24
8890;BME280;4481;43.406;24.454;2023-04-25T07:05:30;75433.84;;;-144.09;72.50
8890;BME280;4481;43.406;24.454;2023-04-25T07:07:57;75419.22;;;-144.09;72.70
8890;BME280;4481;43.406;24.454;2023-04-25T07:10:23;75358.66;;;-144.09;71.24
8890;BME280;4481;43.406;24.454;2023-04-25T07:12:49;75385.81;;;-144.09;71.46
8890;BME280;4481;43.406;24.454;2023-04-25T07:15:15;75396.25;;;-144.09;72.18
8890;BME280;4481;43.406;24.454;2023-04-25T07:17:42;75364.91;;;-144.09;72.59
8890;BME280;4481;43.406;24.454;2023-04-25T07:20:09;75323.13;;;-144.09;72.24
8890;BME280;4481;43.406;24.454;2023-04-25T07:22:36;75318.97;;;-144.09;71.85
8890;BME280;4481;43.406;24.454;2023-04-25T07:25:02;75302.25;;;-144.09;73.11
8890;BME280;4481;43.406;24.454;2023-04-25T07:27:29;75287.63;;;-144.09;71.64
8890;BME280;4481;43.406;24.454;2023-04-25T07:29:57;75281.38;;;-144.09;72.45
8890;BME280;4481;43.406;24.454;2023-04-25T07:32:23;75304.34;;;-144.09;70.60
8890;BME280;4481;43.406;24.454;2023-04-25T07:34:49;75300.16;;;-144.09;71.27
8890;BME280;4481;43.406;24.454;2023-04-25T07:37:15;75289.72;;;-144.09;70.40
8890;BME280;4481;43.406;24.454;2023-04-25T07:39:44;75222.88;;;-144.09;70.44
8890;BME280;4481;43.406;24.454;2023-04-25T07:42:11;75266.75;;;-144.09;68.08
8890;BME280;4481;43.406;24.454;2023-04-25T07:44:38;75316.88;;;-144.09;69.80
8890;BME280;4481;43.406;24.454;2023-04-25T07:47:05;75293.91;;;-144.09;70.55
8890;BME280;4481;43.406;24.454;2023-04-25T07:49:32;75275.09;;;-144.09;70.75
8890;BME280;4481;43.406;24.454;2023-04-25T07:52:00;75224.97;;;-144.09;69.12
8890;BME280;4481;43.406;24.454;2023-04-25T07:54:26;75250.03;;;-144.09;69.83
8890;BME280;4481;43.406;24.454;2023-04-25T07:56:53;75227.06;;;-144.09;68.47
8890;BME280;4481;43.406;24.454;2023-04-25T07:59:19;75254.22;;;-144.09;70.45
8890;BME280;4481;43.406;24.454;2023-04-25T08:01:45;75237.50;;;-144.09;70.52
8890;BME280;4481;43.406;24.454;2023-04-25T08:04:11;75227.06;;;-144.09;69.13
8890;BME280;4481;43.406;24.454;2023-04-25T08:06:38;75189.47;;;-144.09;70.10
8890;BME280;4481;43.406;24.454;2023-04-25T08:09:04;75195.72;;;-144.09;70.07
8890;BME280;4481;43.406;24.454;2023-04-25T08:11:30;75179.00;;;-144.09;69.88
8890;BME280;4481;43.406;24.454;2023-04-25T08:13:57;75149.78;;;-144.09;69.82
8890;BME280;4481;43.406;24.454;2023-04-25T08:16:23;75110.09;;;-144.09;68.00
8890;BME280;4481;43.406;24.454;2023-04-25T08:18:50;75116.34;;;-144.09;69.31
8890;BME280;4481;43.406;24.454;2023-04-25T08:21:16;75091.28;;;-144.09;67.49
8890;BME280;4481;43.406;24.454;2023-04-25T08:23:43;75181.09;;;-144.09;67.21
8890;BME280;4481;43.406;24.454;2023-04-25T08:26:10;75208.25;;;-144.09;67.44
8890;BME280;4481;43.406;24.454;2023-04-25T08:28:36;75247.94;;;-144.09;67.80
8890;BME280;4481;43.406;24.454;2023-04-25T08:31:03;75231.22;;;-144.09;69.74
8890;BME280;4481;43.406;24.454;2023-04-25T08:33:29;75247.94;;;-144.09;68.76
8890;BME280;4481;43.406;24.454;2023-04-25T08:35:57;75273.00;;;-144.09;69.30
8890;BME280;4481;43.406;24.454;2023-04-25T08:38:23;75256.28;;;-144.09;67.93
8890;BME280;4481;43.406;24.454;2023-04-25T08:40:52;75260.47;;;-144.09;68.57
8890;BME280;4481;43.406;24.454;2023-04-25T08:43:21;75270.91;;;-144.09;68.78
8890;BME280;4481;43.406;24.454;2023-04-25T08:45:49;75293.91;;;-144.09;68.89
8890;BME280;4481;43.406;24.454;2023-04-25T08:48:17;75279.28;;;-144.09;69.80
8890;BME280;4481;43.406;24.454;2023-04-25T08:50:45;75266.75;;;-144.09;68.98
8890;BME280;4481;43.406;24.454;2023-04-25T08:53:16;75295.97;;;-144.09;68.54
8890;BME280;4481;43.406;24.454;2023-04-25T08:55:45;75293.91;;;-144.09;68.05
8890;BME280;4481;43.406;24.454;2023-04-25T08:58:12;75260.47;;;-144.09;67.44
8890;BME280;4481;43.406;24.454;2023-04-25T09:00:39;75245.84;;;-144.09;66.88
8890;BME280;4481;43.406;24.454;2023-04-25T09:03:05;75262.56;;;-144.09;66.86
8890;BME280;4481;43.406;24.454;2023-04-25T09:05:32;75312.69;;;-144.09;67.44
8890;BME280;4481;43.406;24.454;2023-04-25T09:07:59;75337.75;;;-144.09;70.16
8890;BME280;4481;43.406;24.454;2023-04-25T09:10:26;75348.22;;;-144.09;70.65
8890;BME280;4481;43.406;24.454;2023-04-25T09:13:03;75425.50;;;-144.09;71.54
8890;BME280;4481;43.406;24.454;2023-04-25T09:15:30;75438.03;;;-144.09;72.05
8890;BME280;4481;43.406;24.454;2023-04-25T09:17:57;75419.22;;;-144.09;73.17
8890;BME280;4481;43.406;24.454;2023-04-25T09:20:24;75423.41;;;-144.09;71.88
8890;BME280;4481;43.406;24.454;2023-04-25T09:23:01;75415.03;;;-144.09;72.40
8890;BME280;4481;43.406;24.454;2023-04-25T09:25:34;75427.59;;;-144.09;71.83
8890;BME280;4481;43.406;24.454;2023-04-25T09:28:03;75400.44;;;-144.09;72.71
8890;BME280;4481;43.406;24.454;2023-04-25T09:30:31;75389.97;;;-144.09;72.68
8890;BME280;4481;43.406;24.454;2023-04-25T09:32:58;75360.75;;;-144.09;72.16
8890;BME280;4481;43.406;24.454;2023-04-25T09:35:29;75354.47;;;-144.09;72.87
8890;BME280;4481;43.406;24.454;2023-04-25T09:38:01;75369.09;;;-144.09;71.97
8890;BME280;4481;43.406;24.454;2023-04-25T09:40:30;75356.56;;;-144.09;71.23
8890;BME280;4481;43.406;24.454;2023-04-25T09:42:56;75358.66;;;-144.09;70.94
8890;BME280;4481;43.406;24.454;2023-04-25T09:45:24;75364.91;;;-144.09;71.03
8890;BME280;4481;43.406;24.454;2023-04-25T09:47:55;75331.50;;;-144.09;69.60
8890;BME280;4481;43.406;24.454;2023-04-25T09:50:23;75308.53;;;-144.09;71.20
8890;BME280;4481;43.406;24.454;2023-04-25T09:53:03;75218.69;;;-144.09;68.06
8890;BME280;4481;43.406;24.454;2023-04-25T09:55:30;75245.84;;;-144.09;69.78
8890;BME280;4481;43.406;24.454;2023-04-25T09:58:03;75285.53;;;-144.09;68.82
8890;BME280;4481;43.406;24.454;2023-04-25T10:00:30;75308.53;;;-144.09;70.15
8890;BME280;4481;43.406;24.454;2023-04-25T10:02:57;75327.31;;;-144.09;70.81
8890;BME280;4481;43.406;24.454;2023-04-25T10:05:27;75362.81;;;-144.09;70.19
8890;BME280;4481;43.406;24.454;2023-04-25T10:07:59;75291.81;;;-144.09;69.25
8890;BME280;4481;43.406;24.454;2023-04-25T10:10:29;75275.09;;;-144.09;69.09
8890;BME280;4481;43.406;24.454;2023-04-25T10:13:03;75252.13;;;-144.09;69.02
8890;BME280;4481;43.406;24.454;2023-04-25T10:15:29;75256.28;;;-144.09;68.14
8890;BME280;4481;43.406;24.454;2023-04-25T10:17:56;75258.38;;;-144.09;68.35
8890;BME280;4481;43.406;24.454;2023-04-25T10:20:24;75260.47;;;-144.09;69.43
8890;BME280;4481;43.406;24.454;2023-04-25T10:22:51;75235.41;;;-144.09;69.68
8890;BME280;4481;43.406;24.454;2023-04-25T10:25:22;75262.56;;;-144.09;69.35
8890;BME280;4481;43.406;24.454;2023-04-25T10:27:51;75262.56;;;-144.09;69.08
8890;BME280;4481;43.406;24.454;2023-04-25T10:30:18;75227.06;;;-144.09;66.35
8890;BME280;4481;43.406;24.454;2023-04-25T10:32:46;75218.69;;;-144.09;68.23
8890;BME280;4481;43.406;24.454;2023-04-25T10:35:16;75243.75;;;-144.09;68.23
8890;BME280;4481;43.406;24.454;2023-04-25T10:38:04;75291.81;;;-144.09;69.40
8890;BME280;4481;43.406;24.454;2023-04-25T10:40:31;75316.88;;;-144.09;69.97
8890;BME280;4481;43.406;24.454;2023-04-25T10:46:00;75354.47;;;-144.09;70.82
8890;BME280;4481;43.406;24.454;2023-04-25T10:48:26;75318.97;;;-144.09;70.52
8890;BME280;4481;43.406;24.454;2023-04-25T10:51:07;75279.28;;;-144.09;70.42
8890;BME280;4481;43.406;24.454;2023-04-25T10:53:34;75308.53;;;-144.09;70.54
8890;BME280;4481;43.406;24.454;2023-04-25T10:56:00;75333.59;;;-144.09;70.81
8890;BME280;4481;43.406;24.454;2023-04-25T10:58:34;75318.97;;;-144.09;71.72
8890;BME280;4481;43.406;24.454;2023-04-25T11:01:01;75356.56;;;-144.09;71.41
8890;BME280;4481;43.406;24.454;2023-04-25T11:03:28;75321.06;;;-144.09;70.65
8890;BME280;4481;43.406;24.454;2023-04-25T11:05:55;75270.91;;;-144.09;70.02
8890;BME280;4481;43.406;24.454;2023-04-25T11:08:38;75222.88;;;-144.09;68.68
8890;BME280;4481;43.406;24.454;2023-04-25T11:11:11;75233.31;;;-144.09;70.40
8890;BME280;4481;43.406;24.454;2023-04-25T11:13:37;75202.00;;;-144.09;68.51
8890;BME280;4481;43.406;24.454;2023-04-25T11:16:07;75141.41;;;-144.09;68.82
8890;BME280;4481;43.406;24.454;2023-04-25T11:18:33;75105.91;;;-144.09;68.42
8890;BME280;4481;43.406;24.454;2023-04-25T11:20:59;75105.91;;;-144.09;65.50
8890;BME280;4481;43.406;24.454;2023-04-25T11:23:25;75147.69;;;-144.09;67.77
8890;BME280;4481;43.406;24.454;2023-04-25T11:25:52;75156.03;;;-144.09;67.92
8890;BME280;4481;43.406;24.454;2023-04-25T11:28:21;75143.50;;;-144.09;66.69
8890;BME280;4481;43.406;24.454;2023-04-25T11:30:48;75143.50;;;-144.09;68.46
8890;BME280;4481;43.406;24.454;2023-04-25T11:33:16;75187.38;;;-144.09;68.03
8890;BME280;4481;43.406;24.454;2023-04-25T11:35:42;75202.00;;;-144.09;68.76
8890;BME280;4481;43.406;24.454;2023-04-25T11:38:08;75229.16;;;-144.09;66.24
8890;BME280;4481;43.406;24.454;2023-04-25T11:40:35;75250.03;;;-144.09;68.62
8890;BME280;4481;43.406;24.454;2023-04-25T11:43:01;75241.69;;;-144.09;68.08
8890;BME280;4481;43.406;24.454;2023-04-25T11:45:28;75210.34;;;-144.09;67.39
8890;BME280;4481;43.406;24.454;2023-04-25T11:47:55;75176.94;;;-144.09;67.63
8890;BME280;4481;43.406;24.454;2023-04-25T11:50:22;75147.69;;;-144.09;68.21
8890;BME280;4481;43.406;24.454;2023-04-25T11:52:48;75147.69;;;-144.09;66.66
8890;BME280;4481;43.406;24.454;2023-04-25T11:55:15;75139.31;;;-144.09;66.81
8890;BME280;4481;43.406;24.454;2023-04-25T11:57:44;75199.91;;;-144.09;66.83
8890;BME280;4481;43.406;24.454;2023-04-25T12:00:12;75202.00;;;-144.09;67.05
8890;BME280;4481;43.406;24.454;2023-04-25T12:02:42;75193.63;;;-144.09;66.97
8890;BME280;4481;43.406;24.454;2023-04-25T12:05:09;75174.84;;;-144.09;66.82
8890;BME280;4481;43.406;24.454;2023-04-25T12:07:36;75130.97;;;-144.09;66.77
8890;BME280;4481;43.406;24.454;2023-04-25T12:10:07;75118.44;;;-144.09;67.21
8890;BME280;4481;43.406;24.454;2023-04-25T12:12:34;75130.97;;;-144.09;67.46
8890;BME280;4481;43.406;24.454;2023-04-25T12:15:08;75120.53;;;-144.09;67.09
8890;BME280;4481;43.406;24.454;2023-04-25T12:17:35;75145.59;;;-144.09;66.59
8890;BME280;4481;43.406;24.454;2023-04-25T12:20:07;75151.84;;;-144.09;66.36
8890;BME280;4481;43.406;24.454;2023-04-25T12:22:34;75302.25;;;-144.09;69.57
8890;BME280;4481;43.406;24.454;2023-04-25T12:25:01;75452.66;;;-144.09;66.23
8890;BME280;4481;43.406;24.454;2023-04-25T12:27:31;75588.44;;;-144.09;70.77
8890;BME280;4481;43.406;24.454;2023-04-25T12:29:57;75649.00;;;-144.09;77.88
8890;BME280;4481;43.406;24.454;2023-04-25T12:32:24;75784.78;;;-144.09;83.75
8890;BME280;4481;43.406;24.454;2023-04-25T12:34:50;75882.97;;;-144.09;91.21
8890;BME280;4481;43.406;24.454;2023-04-25T12:37:16;75964.47;;;-144.09;100.00
8890;BME280;4481;43.406;24.454;2023-04-25T12:39:42;75985.34;;;-144.09;100.00
8890;BME280;4481;43.406;24.454;2023-04-25T12:42:10;75981.19;;;-144.09;100.00
8890;BME280;4481;43.406;24.454;2023-04-25T12:44:37;76025.06;;;-144.09;100.00
8890;BME280;4481;43.406;24.454;2023-04-25T12:47:03;76039.69;;;-144.09;100.00